sensor_id;sensor_type;location;lat;lon;timestamp;pressure;altitude;pressure_sealevel;temperature;humidity
28000;BME280;15328;50.860;10.562;2022-09-27T00:00:31;94532.03;;;11.74;65.08
28000;BME280;15328;50.860;10.562;2022-09-27T00:05:31;94502.75;;;11.79;64.63
28000;BME280;15328;50.860;10.562;2022-09-27T00:10:31;94515.00;;;11.70;65.26
28000;BME280;15328;50.860;10.562;2022-09-27T00:15:32;94512.06;;;11.66;65.45
28000;BME280;15328;50.860;10.562;2022-09-27T00:20:33;94501.94;;;11.73;65.85
28000;BME280;15328;50.860;10.562;2022-09-27T00:25:33;94493.44;;;11.82;64.54
28000;BME280;15328;50.860;10.562;2022-09-27T00:30:34;94492.88;;;11.74;64.25
28000;BME280;15328;50.860;10.562;2022-09-27T00:35:34;94486.50;;;11.65;64.92
28000;BME280;15328;50.860;10.562;2022-09-27T00:40:35;94483.56;;;11.72;65.01
28000;BME280;15328;50.860;10.562;2022-09-27T00:45:35;94479.09;;;11.57;65.94
28000;BME280;15328;50.860;10.562;2022-09-27T00:50:38;94482.22;;;11.74;64.56
28000;BME280;15328;50.860;10.562;2022-09-27T00:55:49;94463.34;;;11.66;64.37
28000;BME280;15328;50.860;10.562;2022-09-27T01:00:55;94459.13;;;11.50;65.65
28000;BME280;15328;50.860;10.562;2022-09-27T01:05:58;94454.09;;;11.43;65.41
28000;BME280;15328;50.860;10.562;2022-09-27T01:16:49;94444.22;;;11.43;65.29
28000;BME280;15328;50.860;10.562;2022-09-27T01:22:23;94418.97;;;11.36;66.05
28000;BME280;15328;50.860;10.562;2022-09-27T01:27:41;94428.00;;;11.40;65.90
28000;BME280;15328;50.860;10.562;2022-09-27T01:32:57;94430.41;;;11.36;66.66
28000;BME280;15328;50.860;10.562;2022-09-27T01:43:29;94420.59;;;11.27;66.40
28000;BME280;15328;50.860;10.562;2022-09-27T01:48:36;94401.72;;;11.23;66.60
28000;BME280;15328;50.860;10.562;2022-09-27T01:53:51;94394.00;;;11.17;67.70
28000;BME280;15328;50.860;10.562;2022-09-27T01:59:08;94386.00;;;11.27;67.27
28000;BME280;15328;50.860;10.562;2022-09-27T02:04:12;94387.56;;;11.38;67.52
28000;BME280;15328;50.860;10.562;2022-09-27T02:09:22;94376.09;;;11.42;66.76
28000;BME280;15328;50.860;10.562;2022-09-27T02:14:32;94374.84;;;11.25;67.58
28000;BME280;15328;50.860;10.562;2022-09-27T02:19:45;94368.16;;;11.32;67.27
28000;BME280;15328;50.860;10.562;2022-09-27T02:24:56;94378.78;;;11.32;67.35
28000;BME280;15328;50.860;10.562;2022-09-27T02:30:02;94379.84;;;11.36;66.89
28000;BME280;15328;50.860;10.562;2022-09-27T02:35:12;94384.38;;;11.36;67.59
28000;BME280;15328;50.860;10.562;2022-09-27T02:40:14;94370.25;;;11.40;66.44
28000;BME280;15328;50.860;10.562;2022-09-27T02:45:17;94371.28;;;11.44;66.76
28000;BME280;15328;50.860;10.562;2022-09-27T02:51:01;94380.34;;;11.43;66.60
28000;BME280;15328;50.860;10.562;2022-09-27T02:56:09;94378.53;;;11.29;67.69
28000;BME280;15328;50.860;10.562;2022-09-27T03:06:50;94365.16;;;11.44;67.82
28000;BME280;15328;50.860;10.562;2022-09-27T03:11:52;94368.34;;;11.51;67.57
28000;BME280;15328;50.860;10.562;2022-09-27T03:16:52;94377.94;;;11.47;67.28
28000;BME280;15328;50.860;10.562;2022-09-27T03:21:53;94371.53;;;11.48;67.48
28000;BME280;15328;50.860;10.562;2022-09-27T03:26:53;94385.66;;;11.43;66.64
28000;BME280;15328;50.860;10.562;2022-09-27T03:31:54;94380.59;;;11.47;67.33
28000;BME280;15328;50.860;10.562;2022-09-27T03:36:54;94380.59;;;11.47;67.04
28000;BME280;15328;50.860;10.562;2022-09-27T03:41:55;94363.53;;;11.48;66.98
28000;BME280;15328;50.860;10.562;2022-09-27T03:46:56;94361.19;;;11.41;67.11
28000;BME280;15328;50.860;10.562;2022-09-27T03:51:57;94362.28;;;11.35;66.69
28000;BME280;15328;50.860;10.562;2022-09-27T03:56:58;94361.47;;;11.35;66.72
28000;BME280;15328;50.860;10.562;2022-09-27T04:01:58;94355.34;;;11.34;66.88
28000;BME280;15328;50.860;10.562;2022-09-27T04:06:59;94354.25;;;11.40;67.14
28000;BME280;15328;50.860;10.562;2022-09-27T04:11:59;94351.63;;;11.35;66.99
28000;BME280;15328;50.860;10.562;2022-09-27T04:17:00;94357.19;;;11.44;66.43
28000;BME280;15328;50.860;10.562;2022-09-27T04:22:00;94351.31;;;11.42;66.31
28000;BME280;15328;50.860;10.562;2022-09-27T04:27:01;94341.19;;;11.44;66.40
28000;BME280;15328;50.860;10.562;2022-09-27T04:32:01;94336.78;;;11.24;65.54
28000;BME280;15328;50.860;10.562;2022-09-27T04:37:01;94341.03;;;11.25;65.98
28000;BME280;15328;50.860;10.562;2022-09-27T04:42:02;94351.94;;;11.29;65.92
28000;BME280;15328;50.860;10.562;2022-09-27T04:47:02;94358.03;;;11.34;66.39
28000;BME280;15328;50.860;10.562;2022-09-27T04:52:03;94359.38;;;11.22;65.98
28000;BME280;15328;50.860;10.562;2022-09-27T04:57:04;94358.88;;;11.25;65.47
28000;BME280;15328;50.860;10.562;2022-09-27T05:02:05;94363.94;;;11.16;65.08
28000;BME280;15328;50.860;10.562;2022-09-27T05:07:05;94362.59;;;11.13;65.12
28000;BME280;15328;50.860;10.562;2022-09-27T05:12:05;94370.09;;;11.01;65.31
28000;BME280;15328;50.860;10.562;2022-09-27T05:17:08;94375.16;;;10.98;65.53
28000;BME280;15328;50.860;10.562;2022-09-27T05:22:09;94386.59;;;10.93;65.79
28000;BME280;15328;50.860;10.562;2022-09-27T05:27:11;94386.34;;;10.84;66.22
28000;BME280;15328;50.860;10.562;2022-09-27T05:32:13;94390.88;;;10.79;66.31
28000;BME280;15328;50.860;10.562;2022-09-27T05:37:13;94398.59;;;10.86;65.74
28000;BME280;15328;50.860;10.562;2022-09-27T05:42:14;94423.34;;;10.76;66.67
28000;BME280;15328;50.860;10.562;2022-09-27T05:47:14;94416.16;;;10.71;66.70
28000;BME280;15328;50.860;10.562;2022-09-27T05:52:15;94428.13;;;10.74;66.08
28000;BME280;15328;50.860;10.562;2022-09-27T05:57:15;94426.78;;;10.56;66.52
28000;BME280;15328;50.860;10.562;2022-09-27T06:02:15;94439.28;;;10.56;66.36
28000;BME280;15328;50.860;10.562;2022-09-27T06:07:17;94442.75;;;10.51;66.63
28000;BME280;15328;50.860;10.562;2022-09-27T06:12:17;94452.03;;;10.43;67.27
28000;BME280;15328;50.860;10.562;2022-09-27T06:17:19;94452.31;;;10.47;67.17
28000;BME280;15328;50.860;10.562;2022-09-27T06:22:22;94454.41;;;10.40;66.11
28000;BME280;15328;50.860;10.562;2022-09-27T06:27:22;94458.38;;;10.37;66.43
28000;BME280;15328;50.860;10.562;2022-09-27T06:32:23;94468.50;;;10.30;66.09
28000;BME280;15328;50.860;10.562;2022-09-27T06:37:24;94474.59;;;10.36;65.87
28000;BME280;15328;50.860;10.562;2022-09-27T06:42:26;94480.72;;;10.36;66.66
28000;BME280;15328;50.860;10.562;2022-09-27T06:47:26;94484.16;;;10.27;65.78
28000;BME280;15328;50.860;10.562;2022-09-27T06:52:28;94483.38;;;10.31;65.38
28000;BME280;15328;50.860;10.562;2022-09-27T06:57:29;94496.97;;;10.45;65.62
28000;BME280;15328;50.860;10.562;2022-09-27T07:02:49;94500.69;;;10.59;65.76
28000;BME280;15328;50.860;10.562;2022-09-27T07:07:52;94505.78;;;10.71;66.38
28000;BME280;15328;50.860;10.562;2022-09-27T07:12:55;94504.72;;;10.82;65.95
28000;BME280;15328;50.860;10.562;2022-09-27T07:18:00;94516.94;;;10.88;65.50
28000;BME280;15328;50.860;10.562;2022-09-27T07:23:00;94523.59;;;10.91;65.81
28000;BME280;15328;50.860;10.562;2022-09-27T07:28:02;94517.75;;;10.99;65.81
28000;BME280;15328;50.860;10.562;2022-09-27T07:33:04;94528.13;;;10.90;65.38
28000;BME280;15328;50.860;10.562;2022-09-27T07:38:06;94536.63;;;10.92;65.66
28000;BME280;15328;50.860;10.562;2022-09-27T07:43:09;94534.78;;;10.98;66.02
28000;BME280;15328;50.860;10.562;2022-09-27T07:48:15;94536.91;;;10.96;65.12
28000;BME280;15328;50.860;10.562;2022-09-27T07:53:15;94552.06;;;10.90;65.48
28000;BME280;15328;50.860;10.562;2022-09-27T07:58:16;94556.03;;;10.93;66.08
28000;BME280;15328;50.860;10.562;2022-09-27T08:03:16;94571.75;;;10.94;65.31
28000;BME280;15328;50.860;10.562;2022-09-27T08:08:17;94570.16;;;10.93;65.98
28000;BME280;15328;50.860;10.562;2022-09-27T08:13:17;94583.97;;;10.85;66.20
28000;BME280;15328;50.860;10.562;2022-09-27T08:18:19;94587.38;;;10.65;65.19
28000;BME280;15328;50.860;10.562;2022-09-27T08:23:21;94595.63;;;10.64;65.57
28000;BME280;15328;50.860;10.562;2022-09-27T08:28:22;94598.25;;;10.48;65.89
28000;BME280;15328;50.860;10.562;2022-09-27T08:33:22;94598.28;;;10.59;65.63
28000;BME280;15328;50.860;10.562;2022-09-27T08:38:25;94601.50;;;10.71;66.57
28000;BME280;15328;50.860;10.562;2022-09-27T08:43:49;94615.91;;;10.95;66.24
28000;BME280;15328;50.860;10.562;2022-09-27T08:48:58;94613.81;;;11.18;65.75
28000;BME280;15328;50.860;10.562;2022-09-27T08:54:20;94618.09;;;11.34;64.98
28000;BME280;15328;50.860;10.562;2022-09-27T08:59:26;94623.94;;;11.36;63.28
28000;BME280;15328;50.860;10.562;2022-09-27T09:04:37;94636.72;;;11.34;63.68
28000;BME280;15328;50.860;10.562;2022-09-27T09:09:47;94647.38;;;11.34;63.11
28000;BME280;15328;50.860;10.562;2022-09-27T09:15:02;94651.06;;;11.23;64.55
28000;BME280;15328;50.860;10.562;2022-09-27T09:31:40;94663.34;;;12.85;58.63
28000;BME280;15328;50.860;10.562;2022-09-27T09:36:50;94660.50;;;13.93;59.34
28000;BME280;15328;50.860;10.562;2022-09-27T09:46:58;94674.66;;;15.94;51.33
28000;BME280;15328;50.860;10.562;2022-09-27T09:52:08;94688.19;;;16.49;50.23
28000;BME280;15328;50.860;10.562;2022-09-27T09:57:15;94679.78;;;16.23;49.33
28000;BME280;15328;50.860;10.562;2022-09-27T10:02:34;94678.72;;;16.05;46.29
28000;BME280;15328;50.860;10.562;2022-09-27T10:07:37;94687.09;;;15.09;48.01
28000;BME280;15328;50.860;10.562;2022-09-27T10:12:38;94685.09;;;14.53;50.07
28000;BME280;15328;50.860;10.562;2022-09-27T10:17:41;94689.84;;;14.04;51.64
28000;BME280;15328;50.860;10.562;2022-09-27T10:22:47;94692.53;;;13.65;53.21
28000;BME280;15328;50.860;10.562;2022-09-27T10:27:53;94678.38;;;14.56;52.45
28000;BME280;15328;50.860;10.562;2022-09-27T10:33:15;94684.31;;;15.38;50.95
28000;BME280;15328;50.860;10.562;2022-09-27T10:43:35;94696.66;;;15.15;49.16
28000;BME280;15328;50.860;10.562;2022-09-27T10:48:37;94693.84;;;14.83;49.32
28000;BME280;15328;50.860;10.562;2022-09-27T10:53:44;94712.91;;;14.76;50.13
28000;BME280;15328;50.860;10.562;2022-09-27T10:58:45;94700.88;;;14.26;51.50
28000;BME280;15328;50.860;10.562;2022-09-27T11:03:54;94700.84;;;13.97;50.40
28000;BME280;15328;50.860;10.562;2022-09-27T11:09:09;94705.13;;;14.56;51.66
28000;BME280;15328;50.860;10.562;2022-09-27T11:14:19;94712.03;;;15.05;49.54
28000;BME280;15328;50.860;10.562;2022-09-27T11:30:21;94713.13;;;16.63;46.55
28000;BME280;15328;50.860;10.562;2022-09-27T11:46:31;94682.66;;;14.81;49.07
28000;BME280;15328;50.860;10.562;2022-09-27T11:51:52;94692.94;;;14.69;48.80
28000;BME280;15328;50.860;10.562;2022-09-27T11:57:19;94689.13;;;14.75;49.25
28000;BME280;15328;50.860;10.562;2022-09-27T12:07:53;94698.28;;;14.69;50.21
28000;BME280;15328;50.860;10.562;2022-09-27T12:13:03;94694.94;;;14.82;52.16
28000;BME280;15328;50.860;10.562;2022-09-27T12:18:25;94696.72;;;15.29;51.00
28000;BME280;15328;50.860;10.562;2022-09-27T12:23:58;94693.69;;;15.55;48.19
28000;BME280;15328;50.860;10.562;2022-09-27T12:34:21;94697.47;;;16.24;48.34
28000;BME280;15328;50.860;10.562;2022-09-27T12:44:41;94710.47;;;15.65;45.40
28000;BME280;15328;50.860;10.562;2022-09-27T12:54:54;94718.31;;;14.95;48.09
28000;BME280;15328;50.860;10.562;2022-09-27T13:00:19;94720.13;;;14.81;48.39
28000;BME280;15328;50.860;10.562;2022-09-27T13:11:08;94734.06;;;13.86;50.08
28000;BME280;15328;50.860;10.562;2022-09-27T13:16:07;94739.91;;;13.54;51.89
28000;BME280;15328;50.860;10.562;2022-09-27T13:21:08;94733.81;;;13.48;52.70
28000;BME280;15328;50.860;10.562;2022-09-27T13:26:22;94723.41;;;13.47;53.29
28000;BME280;15328;50.860;10.562;2022-09-27T13:36:54;94725.50;;;13.89;53.00
28000;BME280;15328;50.860;10.562;2022-09-27T13:42:11;94715.16;;;13.77;52.65
28000;BME280;15328;50.860;10.562;2022-09-27T13:47:36;94710.63;;;13.78;52.40
28000;BME280;15328;50.860;10.562;2022-09-27T13:52:42;94713.78;;;13.85;52.49
28000;BME280;15328;50.860;10.562;2022-09-27T13:57:59;94723.06;;;13.92;52.83
28000;BME280;15328;50.860;10.562;2022-09-27T14:08:19;94709.66;;;13.64;53.33
28000;BME280;15328;50.860;10.562;2022-09-27T14:13:25;94711.69;;;13.43;53.04
28000;BME280;15328;50.860;10.562;2022-09-27T14:18:26;94712.75;;;13.37;53.20
28000;BME280;15328;50.860;10.562;2022-09-27T14:23:29;94729.13;;;13.25;54.04
28000;BME280;15328;50.860;10.562;2022-09-27T14:28:38;94723.84;;;13.05;54.32
28000;BME280;15328;50.860;10.562;2022-09-27T14:33:39;94716.41;;;12.96;53.94
28000;BME280;15328;50.860;10.562;2022-09-27T14:38:41;94725.78;;;12.89;54.74
28000;BME280;15328;50.860;10.562;2022-09-27T14:43:44;94742.63;;;12.79;54.69
28000;BME280;15328;50.860;10.562;2022-09-27T14:48:45;94748.00;;;12.59;56.18
28000;BME280;15328;50.860;10.562;2022-09-27T14:53:51;94742.19;;;12.42;57.09
28000;BME280;15328;50.860;10.562;2022-09-27T15:04:27;94744.06;;;12.36;58.17
28000;BME280;15328;50.860;10.562;2022-09-27T15:09:31;94731.00;;;12.24;57.97
28000;BME280;15328;50.860;10.562;2022-09-27T15:14:32;94743.84;;;12.12;58.38
28000;BME280;15328;50.860;10.562;2022-09-27T15:19:32;94729.69;;;12.01;58.54
28000;BME280;15328;50.860;10.562;2022-09-27T15:24:39;94721.19;;;11.84;58.09
28000;BME280;15328;50.860;10.562;2022-09-27T15:29:50;94730.25;;;11.78;58.36
28000;BME280;15328;50.860;10.562;2022-09-27T15:34:51;94736.06;;;11.65;58.95
28000;BME280;15328;50.860;10.562;2022-09-27T15:39:52;94736.31;;;11.53;59.38
28000;BME280;15328;50.860;10.562;2022-09-27T15:44:54;94741.38;;;11.55;59.47
28000;BME280;15328;50.860;10.562;2022-09-27T15:49:58;94741.34;;;11.44;59.50
28000;BME280;15328;50.860;10.562;2022-09-27T15:54:58;94747.22;;;11.46;59.65
28000;BME280;15328;50.860;10.562;2022-09-27T15:59:59;94748.53;;;11.44;60.58
28000;BME280;15328;50.860;10.562;2022-09-27T16:04:59;94740.53;;;11.39;60.13
28000;BME280;15328;50.860;10.562;2022-09-27T16:10:00;94750.91;;;11.35;59.90
28000;BME280;15328;50.860;10.562;2022-09-27T16:15:00;94755.44;;;11.30;60.26
28000;BME280;15328;50.860;10.562;2022-09-27T16:20:00;94745.84;;;11.24;59.95
28000;BME280;15328;50.860;10.562;2022-09-27T16:25:01;94742.13;;;11.25;60.20
28000;BME280;15328;50.860;10.562;2022-09-27T16:30:01;94741.59;;;11.33;59.84
28000;BME280;15328;50.860;10.562;2022-09-27T16:35:02;94752.19;;;11.23;60.64
28000;BME280;15328;50.860;10.562;2022-09-27T16:40:04;94762.84;;;11.18;60.56
28000;BME280;15328;50.860;10.562;2022-09-27T16:45:05;94768.97;;;11.18;61.11
28000;BME280;15328;50.860;10.562;2022-09-27T16:50:08;94765.00;;;11.26;60.70
28000;BME280;15328;50.860;10.562;2022-09-27T16:55:28;94768.47;;;11.26;61.38
28000;BME280;15328;50.860;10.562;2022-09-27T17:00:31;94770.28;;;11.21;61.37
28000;BME280;15328;50.860;10.562;2022-09-27T17:05:32;94773.72;;;11.11;61.21
28000;BME280;15328;50.860;10.562;2022-09-27T17:10:33;94770.78;;;11.07;60.64
28000;BME280;15328;50.860;10.562;2022-09-27T17:15:35;94776.81;;;10.88;60.93
28000;BME280;15328;50.860;10.562;2022-09-27T17:20:36;94774.44;;;10.91;60.98
28000;BME280;15328;50.860;10.562;2022-09-27T17:25:36;94786.09;;;10.80;61.59
28000;BME280;15328;50.860;10.562;2022-09-27T17:30:37;94780.22;;;10.73;61.48
28000;BME280;15328;50.860;10.562;2022-09-27T17:35:42;94771.34;;;10.57;61.02
28000;BME280;15328;50.860;10.562;2022-09-27T17:40:43;94770.75;;;10.45;60.64
28000;BME280;15328;50.860;10.562;2022-09-27T17:45:44;94775.00;;;10.41;60.52
28000;BME280;15328;50.860;10.562;2022-09-27T17:50:45;94764.84;;;10.38;60.54
28000;BME280;15328;50.860;10.562;2022-09-27T17:55:45;94771.41;;;10.25;60.64
28000;BME280;15328;50.860;10.562;2022-09-27T18:00:45;94770.63;;;10.25;60.95
28000;BME280;15328;50.860;10.562;2022-09-27T18:05:46;94773.28;;;10.25;62.35
28000;BME280;15328;50.860;10.562;2022-09-27T18:10:46;94774.66;;;10.32;61.49
28000;BME280;15328;50.860;10.562;2022-09-27T18:15:54;94776.25;;;10.33;62.53
28000;BME280;15328;50.860;10.562;2022-09-27T18:21:02;94780.47;;;10.29;62.05
28000;BME280;15328;50.860;10.562;2022-09-27T18:26:03;94789.81;;;10.37;61.93
28000;BME280;15328;50.860;10.562;2022-09-27T18:31:12;94787.50;;;10.45;62.33
28000;BME280;15328;50.860;10.562;2022-09-27T18:36:24;94798.69;;;10.47;63.57
28000;BME280;15328;50.860;10.562;2022-09-27T18:41:28;94797.34;;;10.45;63.30
28000;BME280;15328;50.860;10.562;2022-09-27T18:46:30;94791.97;;;10.40;63.41
28000;BME280;15328;50.860;10.562;2022-09-27T18:51:33;94804.19;;;10.36;63.87
28000;BME280;15328;50.860;10.562;2022-09-27T18:56:36;94795.44;;;10.40;64.23
28000;BME280;15328;50.860;10.562;2022-09-27T19:01:40;94791.75;;;10.41;64.27
28000;BME280;15328;50.860;10.562;2022-09-27T19:06:43;94794.56;;;10.30;62.66
28000;BME280;15328;50.860;10.562;2022-09-27T19:11:44;94802.78;;;10.23;63.47
28000;BME280;15328;50.860;10.562;2022-09-27T19:16:44;94790.22;;;10.18;63.63
28000;BME280;15328;50.860;10.562;2022-09-27T19:21:47;94800.50;;;10.10;63.73
28000;BME280;15328;50.860;10.562;2022-09-27T19:26:47;94804.94;;;9.99;63.34
28000;BME280;15328;50.860;10.562;2022-09-27T19:31:53;94802.81;;;10.01;63.43
28000;BME280;15328;50.860;10.562;2022-09-27T19:36:53;94797.59;;;9.79;63.42
28000;BME280;15328;50.860;10.562;2022-09-27T19:41:54;94801.03;;;9.80;64.03
28000;BME280;15328;50.860;10.562;2022-09-27T19:46:54;94804.38;;;9.65;64.20
28000;BME280;15328;50.860;10.562;2022-09-27T19:51:55;94796.94;;;9.67;64.22
28000;BME280;15328;50.860;10.562;2022-09-27T19:56:55;94803.81;;;9.63;64.29
28000;BME280;15328;50.860;10.562;2022-09-27T20:01:55;94795.78;;;9.58;64.52
28000;BME280;15328;50.860;10.562;2022-09-27T20:06:56;94794.13;;;9.52;64.77
28000;BME280;15328;50.860;10.562;2022-09-27T20:11:56;94798.63;;;9.51;64.58
28000;BME280;15328;50.860;10.562;2022-09-27T20:16:57;94803.94;;;9.51;64.43
28000;BME280;15328;50.860;10.562;2022-09-27T20:21:57;94800.78;;;9.54;64.20
28000;BME280;15328;50.860;10.562;2022-09-27T20:26:57;94801.00;;;9.48;64.46
28000;BME280;15328;50.860;10.562;2022-09-27T20:31:58;94795.38;;;9.44;64.63
28000;BME280;15328;50.860;10.562;2022-09-27T20:36:58;94796.16;;;9.40;64.48
28000;BME280;15328;50.860;10.562;2022-09-27T20:41:58;94790.28;;;9.38;64.41
28000;BME280;15328;50.860;10.562;2022-09-27T20:46:59;94783.41;;;9.15;63.86
28000;BME280;15328;50.860;10.562;2022-09-27T20:51:59;94785.59;;;9.23;64.13
28000;BME280;15328;50.860;10.562;2022-09-27T20:57:00;94790.66;;;9.24;63.67
28000;BME280;15328;50.860;10.562;2022-09-27T21:02:00;94792.22;;;9.20;63.55
28000;BME280;15328;50.860;10.562;2022-09-27T21:07:00;94805.72;;;9.19;63.62
28000;BME280;15328;50.860;10.562;2022-09-27T21:12:02;94807.63;;;9.23;64.02
28000;BME280;15328;50.860;10.562;2022-09-27T21:17:03;94802.81;;;9.20;63.84
28000;BME280;15328;50.860;10.562;2022-09-27T21:22:06;94793.25;;;9.19;63.55
28000;BME280;15328;50.860;10.562;2022-09-27T21:27:06;94805.78;;;9.24;63.20
28000;BME280;15328;50.860;10.562;2022-09-27T21:32:06;94796.00;;;9.29;63.05
28000;BME280;15328;50.860;10.562;2022-09-27T21:37:07;94796.50;;;9.26;63.04
28000;BME280;15328;50.860;10.562;2022-09-27T21:42:07;94796.00;;;9.29;63.36
28000;BME280;15328;50.860;10.562;2022-09-27T21:47:08;94798.19;;;9.33;63.38
28000;BME280;15328;50.860;10.562;2022-09-27T21:52:08;94801.69;;;9.38;63.06
28000;BME280;15328;50.860;10.562;2022-09-27T21:57:08;94788.94;;;9.35;63.59
28000;BME280;15328;50.860;10.562;2022-09-27T22:02:09;94795.91;;;9.41;63.70
28000;BME280;15328;50.860;10.562;2022-09-27T22:07:09;94791.13;;;9.43;63.16
28000;BME280;15328;50.860;10.562;2022-09-27T22:12:10;94794.59;;;9.44;63.32
28000;BME280;15328;50.860;10.562;2022-09-27T22:17:10;94792.50;;;9.46;63.92
28000;BME280;15328;50.860;10.562;2022-09-27T22:22:10;94789.19;;;9.34;63.34
28000;BME280;15328;50.860;10.562;2022-09-27T22:27:11;94778.44;;;9.23;63.30
28000;BME280;15328;50.860;10.562;2022-09-27T22:32:11;94765.13;;;9.18;63.42
28000;BME280;15328;50.860;10.562;2022-09-27T22:37:11;94764.78;;;9.10;63.18
28000;BME280;15328;50.860;10.562;2022-09-27T22:42:12;94765.69;;;8.98;63.70
28000;BME280;15328;50.860;10.562;2022-09-27T22:47:12;94760.28;;;8.88;64.00
28000;BME280;15328;50.860;10.562;2022-09-27T22:52:13;94759.38;;;8.78;64.24
28000;BME280;15328;50.860;10.562;2022-09-27T22:57:13;94755.41;;;8.80;64.20
28000;BME280;15328;50.860;10.562;2022-09-27T23:02:14;94760.34;;;8.72;64.03
28000;BME280;15328;50.860;10.562;2022-09-27T23:07:14;94750.53;;;8.72;64.14
28000;BME280;15328;50.860;10.562;2022-09-27T23:12:14;94756.63;;;8.73;64.52
28000;BME280;15328;50.860;10.562;2022-09-27T23:17:15;94754.38;;;8.81;64.25
28000;BME280;15328;50.860;10.562;2022-09-27T23:22:15;94754.72;;;8.90;64.22
28000;BME280;15328;50.860;10.562;2022-09-27T23:27:16;94742.03;;;8.92;64.36
28000;BME280;15328;50.860;10.562;2022-09-27T23:32:35;94732.75;;;8.94;64.09
28000;BME280;15328;50.860;10.562;2022-09-27T23:37:35;94728.34;;;8.78;64.31
28000;BME280;15328;50.860;10.562;2022-09-27T23:42:35;94709.59;;;8.85;64.38
28000;BME280;15328;50.860;10.562;2022-09-27T23:47:36;94709.53;;;8.80;64.13
28000;BME280;15328;50.860;10.562;2022-09-27T23:52:38;94700.03;;;8.84;63.92
28000;BME280;15328;50.860;10.562;2022-09-27T23:57:39;94694.44;;;8.80;64.35
